sensor_id;sensor_type;location;lat;lon;timestamp;P1;durP1;ratioP1;P2;durP2;ratioP2
26181;SDS011;13927;51.534;11.866;2023-02-17T00:00:09;38.05;;;27.88;;
26181;SDS011;13927;51.534;11.866;2023-02-17T00:02:37;37.13;;;25.58;;
26181;SDS011;13927;51.534;11.866;2023-02-17T00:05:04;36.70;;;25.85;;
26181;SDS011;13927;51.534;11.866;2023-02-17T00:07:31;36.60;;;26.20;;
26181;SDS011;13927;51.534;11.866;2023-02-17T00:10:01;34.10;;;24.33;;
26181;SDS011;13927;51.534;11.866;2023-02-17T00:12:26;38.58;;;24.80;;
26181;SDS011;13927;51.534;11.866;2023-02-17T00:14:52;35.13;;;23.75;;
26181;SDS011;13927;51.534;11.866;2023-02-17T00:17:18;35.08;;;24.33;;
26181;SDS011;13927;51.534;11.866;2023-02-17T00:19:43;36.58;;;24.83;;
26181;SDS011;13927;51.534;11.866;2023-02-17T00:22:09;41.22;;;26.23;;
26181;SDS011;13927;51.534;11.866;2023-02-17T00:24:38;34.85;;;24.30;;
26181;SDS011;13927;51.534;11.866;2023-02-17T00:27:05;34.72;;;24.17;;
26181;SDS011;13927;51.534;11.866;2023-02-17T00:29:31;34.83;;;23.80;;
26181;SDS011;13927;51.534;11.866;2023-02-17T00:31:58;34.80;;;24.70;;
26181;SDS011;13927;51.534;11.866;2023-02-17T00:34:24;35.65;;;24.70;;
26181;SDS011;13927;51.534;11.866;2023-02-17T00:36:51;33.65;;;22.48;;
26181;SDS011;13927;51.534;11.866;2023-02-17T00:39:18;31.38;;;23.92;;
26181;SDS011;13927;51.534;11.866;2023-02-17T00:41:43;33.63;;;23.92;;
26181;SDS011;13927;51.534;11.866;2023-02-17T00:44:16;31.92;;;22.88;;
26181;SDS011;13927;51.534;11.866;2023-02-17T00:46:47;34.97;;;23.63;;
26181;SDS011;13927;51.534;11.866;2023-02-17T00:49:17;34.70;;;22.50;;
26181;SDS011;13927;51.534;11.866;2023-02-17T00:51:46;37.13;;;24.03;;
26181;SDS011;13927;51.534;11.866;2023-02-17T00:54:12;33.25;;;23.27;;
26181;SDS011;13927;51.534;11.866;2023-02-17T00:56:39;32.88;;;23.35;;
26181;SDS011;13927;51.534;11.866;2023-02-17T00:59:05;34.00;;;23.70;;
26181;SDS011;13927;51.534;11.866;2023-02-17T01:01:33;32.85;;;23.63;;
26181;SDS011;13927;51.534;11.866;2023-02-17T01:03:59;35.47;;;24.00;;
26181;SDS011;13927;51.534;11.866;2023-02-17T01:06:33;34.13;;;24.08;;
26181;SDS011;13927;51.534;11.866;2023-02-17T01:09:02;32.53;;;23.02;;
26181;SDS011;13927;51.534;11.866;2023-02-17T01:11:34;34.92;;;24.20;;
26181;SDS011;13927;51.534;11.866;2023-02-17T01:14:01;35.67;;;23.85;;
26181;SDS011;13927;51.534;11.866;2023-02-17T01:16:30;33.10;;;22.95;;
26181;SDS011;13927;51.534;11.866;2023-02-17T01:19:19;35.55;;;23.77;;
26181;SDS011;13927;51.534;11.866;2023-02-17T01:21:45;33.63;;;23.30;;
26181;SDS011;13927;51.534;11.866;2023-02-17T01:24:11;31.10;;;22.83;;
26181;SDS011;13927;51.534;11.866;2023-02-17T01:26:37;36.03;;;23.80;;
26181;SDS011;13927;51.534;11.866;2023-02-17T01:29:05;39.15;;;25.48;;
26181;SDS011;13927;51.534;11.866;2023-02-17T01:31:31;36.28;;;23.05;;
26181;SDS011;13927;51.534;11.866;2023-02-17T01:33:58;34.47;;;25.33;;
26181;SDS011;13927;51.534;11.866;2023-02-17T01:36:27;32.03;;;24.42;;
26181;SDS011;13927;51.534;11.866;2023-02-17T01:38:53;36.58;;;25.25;;
26181;SDS011;13927;51.534;11.866;2023-02-17T01:41:21;37.83;;;24.75;;
26181;SDS011;13927;51.534;11.866;2023-02-17T01:46:46;33.85;;;24.73;;
26181;SDS011;13927;51.534;11.866;2023-02-17T01:49:23;37.70;;;25.47;;
26181;SDS011;13927;51.534;11.866;2023-02-17T01:54:42;37.28;;;25.83;;
26181;SDS011;13927;51.534;11.866;2023-02-17T01:57:20;36.60;;;25.95;;
26181;SDS011;13927;51.534;11.866;2023-02-17T01:59:50;37.97;;;25.58;;
26181;SDS011;13927;51.534;11.866;2023-02-17T02:02:17;38.60;;;26.92;;
26181;SDS011;13927;51.534;11.866;2023-02-17T02:04:44;38.97;;;26.58;;
26181;SDS011;13927;51.534;11.866;2023-02-17T02:07:15;40.13;;;26.63;;
26181;SDS011;13927;51.534;11.866;2023-02-17T02:09:48;39.10;;;26.45;;
26181;SDS011;13927;51.534;11.866;2023-02-17T02:12:18;38.72;;;26.23;;
26181;SDS011;13927;51.534;11.866;2023-02-17T02:14:55;38.28;;;26.63;;
26181;SDS011;13927;51.534;11.866;2023-02-17T02:23:22;35.38;;;26.10;;
26181;SDS011;13927;51.534;11.866;2023-02-17T02:33:02;40.40;;;26.93;;
26181;SDS011;13927;51.534;11.866;2023-02-17T02:38:29;33.15;;;25.67;;
26181;SDS011;13927;51.534;11.866;2023-02-17T02:41:04;37.00;;;26.15;;
26181;SDS011;13927;51.534;11.866;2023-02-17T02:43:41;35.88;;;25.05;;
26181;SDS011;13927;51.534;11.866;2023-02-17T02:46:07;33.15;;;24.02;;
26181;SDS011;13927;51.534;11.866;2023-02-17T02:48:33;34.63;;;24.95;;
26181;SDS011;13927;51.534;11.866;2023-02-17T02:51:03;37.63;;;26.98;;
26181;SDS011;13927;51.534;11.866;2023-02-17T02:57:28;34.22;;;25.52;;
26181;SDS011;13927;51.534;11.866;2023-02-17T03:00:24;35.67;;;25.50;;
26181;SDS011;13927;51.534;11.866;2023-02-17T03:03:14;35.15;;;26.45;;
26181;SDS011;13927;51.534;11.866;2023-02-17T03:08:48;37.65;;;27.85;;
26181;SDS011;13927;51.534;11.866;2023-02-17T03:11:23;37.47;;;26.35;;
26181;SDS011;13927;51.534;11.866;2023-02-17T03:14:02;35.80;;;25.98;;
26181;SDS011;13927;51.534;11.866;2023-02-17T03:16:46;39.05;;;25.55;;
26181;SDS011;13927;51.534;11.866;2023-02-17T03:19:13;39.13;;;27.58;;
26181;SDS011;13927;51.534;11.866;2023-02-17T03:21:44;34.50;;;24.92;;
26181;SDS011;13927;51.534;11.866;2023-02-17T03:24:17;32.58;;;25.35;;
26181;SDS011;13927;51.534;11.866;2023-02-17T03:26:43;34.65;;;25.35;;
26181;SDS011;13927;51.534;11.866;2023-02-17T03:29:09;37.88;;;25.13;;
26181;SDS011;13927;51.534;11.866;2023-02-17T03:31:35;40.95;;;25.90;;
26181;SDS011;13927;51.534;11.866;2023-02-17T03:34:01;34.80;;;25.83;;
26181;SDS011;13927;51.534;11.866;2023-02-17T03:36:28;34.85;;;25.52;;
26181;SDS011;13927;51.534;11.866;2023-02-17T03:38:54;34.85;;;25.02;;
26181;SDS011;13927;51.534;11.866;2023-02-17T03:41:21;32.42;;;25.38;;
26181;SDS011;13927;51.534;11.866;2023-02-17T03:43:47;35.63;;;24.15;;
26181;SDS011;13927;51.534;11.866;2023-02-17T03:46:14;30.92;;;23.73;;
26181;SDS011;13927;51.534;11.866;2023-02-17T03:48:40;32.85;;;24.50;;
26181;SDS011;13927;51.534;11.866;2023-02-17T03:51:13;32.58;;;24.75;;
26181;SDS011;13927;51.534;11.866;2023-02-17T03:53:46;33.00;;;23.52;;
26181;SDS011;13927;51.534;11.866;2023-02-17T03:56:13;33.40;;;24.20;;
26181;SDS011;13927;51.534;11.866;2023-02-17T03:58:41;29.98;;;23.48;;
26181;SDS011;13927;51.534;11.866;2023-02-17T04:01:07;31.45;;;23.02;;
26181;SDS011;13927;51.534;11.866;2023-02-17T04:03:35;30.90;;;22.20;;
26181;SDS011;13927;51.534;11.866;2023-02-17T04:06:02;29.77;;;22.83;;
26181;SDS011;13927;51.534;11.866;2023-02-17T04:08:28;29.70;;;23.58;;
26181;SDS011;13927;51.534;11.866;2023-02-17T04:10:54;31.73;;;23.23;;
26181;SDS011;13927;51.534;11.866;2023-02-17T04:13:40;30.75;;;22.63;;
26181;SDS011;13927;51.534;11.866;2023-02-17T04:16:07;31.75;;;22.45;;
26181;SDS011;13927;51.534;11.866;2023-02-17T04:18:36;30.60;;;23.58;;
26181;SDS011;13927;51.534;11.866;2023-02-17T04:21:05;29.30;;;21.67;;
26181;SDS011;13927;51.534;11.866;2023-02-17T04:23:32;30.25;;;23.40;;
26181;SDS011;13927;51.534;11.866;2023-02-17T04:26:00;29.25;;;21.65;;
26181;SDS011;13927;51.534;11.866;2023-02-17T04:28:31;28.92;;;22.05;;
26181;SDS011;13927;51.534;11.866;2023-02-17T04:31:03;31.20;;;21.98;;
26181;SDS011;13927;51.534;11.866;2023-02-17T04:33:29;31.02;;;22.13;;
26181;SDS011;13927;51.534;11.866;2023-02-17T04:35:54;29.75;;;22.77;;
26181;SDS011;13927;51.534;11.866;2023-02-17T04:38:24;27.88;;;21.55;;
26181;SDS011;13927;51.534;11.866;2023-02-17T04:40:53;28.45;;;22.02;;
26181;SDS011;13927;51.534;11.866;2023-02-17T04:43:21;29.90;;;22.95;;
26181;SDS011;13927;51.534;11.866;2023-02-17T04:45:48;28.77;;;21.63;;
26181;SDS011;13927;51.534;11.866;2023-02-17T04:48:14;29.25;;;21.88;;
26181;SDS011;13927;51.534;11.866;2023-02-17T04:50:40;27.10;;;21.10;;
26181;SDS011;13927;51.534;11.866;2023-02-17T04:53:06;27.77;;;21.27;;
26181;SDS011;13927;51.534;11.866;2023-02-17T04:55:32;27.50;;;20.20;;
26181;SDS011;13927;51.534;11.866;2023-02-17T04:57:58;26.17;;;20.27;;
26181;SDS011;13927;51.534;11.866;2023-02-17T05:00:24;25.70;;;20.23;;
26181;SDS011;13927;51.534;11.866;2023-02-17T05:02:49;26.17;;;19.90;;
26181;SDS011;13927;51.534;11.866;2023-02-17T05:05:15;27.85;;;20.40;;
26181;SDS011;13927;51.534;11.866;2023-02-17T05:07:42;23.27;;;19.13;;
26181;SDS011;13927;51.534;11.866;2023-02-17T05:10:13;22.20;;;19.15;;
26181;SDS011;13927;51.534;11.866;2023-02-17T05:12:43;23.33;;;18.80;;
26181;SDS011;13927;51.534;11.866;2023-02-17T05:15:09;23.27;;;18.80;;
26181;SDS011;13927;51.534;11.866;2023-02-17T05:17:36;22.52;;;17.88;;
26181;SDS011;13927;51.534;11.866;2023-02-17T05:20:03;21.92;;;17.45;;
26181;SDS011;13927;51.534;11.866;2023-02-17T05:22:30;23.08;;;17.23;;
26181;SDS011;13927;51.534;11.866;2023-02-17T05:24:56;21.55;;;16.10;;
26181;SDS011;13927;51.534;11.866;2023-02-17T05:27:22;19.63;;;16.75;;
26181;SDS011;13927;51.534;11.866;2023-02-17T05:29:48;19.65;;;16.00;;
26181;SDS011;13927;51.534;11.866;2023-02-17T05:32:15;19.25;;;15.63;;
26181;SDS011;13927;51.534;11.866;2023-02-17T05:34:41;19.20;;;15.82;;
26181;SDS011;13927;51.534;11.866;2023-02-17T05:37:07;20.95;;;17.00;;
26181;SDS011;13927;51.534;11.866;2023-02-17T05:39:33;18.73;;;15.52;;
26181;SDS011;13927;51.534;11.866;2023-02-17T05:41:59;20.02;;;16.25;;
26181;SDS011;13927;51.534;11.866;2023-02-17T05:44:24;21.25;;;16.63;;
26181;SDS011;13927;51.534;11.866;2023-02-17T05:46:50;23.67;;;15.38;;
26181;SDS011;13927;51.534;11.866;2023-02-17T05:49:16;20.63;;;16.73;;
26181;SDS011;13927;51.534;11.866;2023-02-17T05:51:41;19.23;;;16.15;;
26181;SDS011;13927;51.534;11.866;2023-02-17T05:54:07;18.98;;;15.85;;
26181;SDS011;13927;51.534;11.866;2023-02-17T05:56:33;18.83;;;16.02;;
26181;SDS011;13927;51.534;11.866;2023-02-17T05:58:58;20.13;;;14.55;;
26181;SDS011;13927;51.534;11.866;2023-02-17T06:01:24;19.88;;;15.77;;
26181;SDS011;13927;51.534;11.866;2023-02-17T06:03:51;20.10;;;14.98;;
26181;SDS011;13927;51.534;11.866;2023-02-17T06:06:16;20.20;;;15.70;;
26181;SDS011;13927;51.534;11.866;2023-02-17T06:08:42;19.40;;;16.33;;
26181;SDS011;13927;51.534;11.866;2023-02-17T06:11:08;20.17;;;16.42;;
26181;SDS011;13927;51.534;11.866;2023-02-17T06:13:34;19.63;;;16.45;;
26181;SDS011;13927;51.534;11.866;2023-02-17T06:15:59;20.48;;;15.43;;
26181;SDS011;13927;51.534;11.866;2023-02-17T06:18:25;17.88;;;14.75;;
26181;SDS011;13927;51.534;11.866;2023-02-17T06:20:53;19.58;;;15.85;;
26181;SDS011;13927;51.534;11.866;2023-02-17T06:23:21;19.88;;;15.82;;
26181;SDS011;13927;51.534;11.866;2023-02-17T06:25:47;19.88;;;15.95;;
26181;SDS011;13927;51.534;11.866;2023-02-17T06:28:13;18.27;;;15.55;;
26181;SDS011;13927;51.534;11.866;2023-02-17T06:30:39;19.52;;;16.25;;
26181;SDS011;13927;51.534;11.866;2023-02-17T06:33:05;21.60;;;16.67;;
26181;SDS011;13927;51.534;11.866;2023-02-17T06:35:30;19.08;;;15.75;;
26181;SDS011;13927;51.534;11.866;2023-02-17T06:37:56;18.55;;;15.45;;
26181;SDS011;13927;51.534;11.866;2023-02-17T06:40:22;19.98;;;16.70;;
26181;SDS011;13927;51.534;11.866;2023-02-17T06:42:48;21.20;;;16.75;;
26181;SDS011;13927;51.534;11.866;2023-02-17T06:45:14;23.02;;;17.70;;
26181;SDS011;13927;51.534;11.866;2023-02-17T06:47:40;20.02;;;16.33;;
26181;SDS011;13927;51.534;11.866;2023-02-17T06:50:06;20.58;;;17.10;;
26181;SDS011;13927;51.534;11.866;2023-02-17T06:52:32;20.90;;;17.38;;
26181;SDS011;13927;51.534;11.866;2023-02-17T06:54:58;20.02;;;16.88;;
26181;SDS011;13927;51.534;11.866;2023-02-17T06:57:24;25.02;;;17.75;;
26181;SDS011;13927;51.534;11.866;2023-02-17T06:59:50;24.05;;;17.17;;
26181;SDS011;13927;51.534;11.866;2023-02-17T07:02:15;21.10;;;17.67;;
26181;SDS011;13927;51.534;11.866;2023-02-17T07:04:41;22.80;;;17.92;;
26181;SDS011;13927;51.534;11.866;2023-02-17T07:07:08;23.02;;;17.85;;
26181;SDS011;13927;51.534;11.866;2023-02-17T07:09:34;23.63;;;17.70;;
26181;SDS011;13927;51.534;11.866;2023-02-17T07:12:01;20.40;;;17.20;;
26181;SDS011;13927;51.534;11.866;2023-02-17T07:14:27;21.38;;;17.00;;
26181;SDS011;13927;51.534;11.866;2023-02-17T07:16:53;20.55;;;17.83;;
26181;SDS011;13927;51.534;11.866;2023-02-17T07:19:18;22.38;;;17.73;;
26181;SDS011;13927;51.534;11.866;2023-02-17T07:21:44;21.45;;;16.52;;
26181;SDS011;13927;51.534;11.866;2023-02-17T07:24:10;22.02;;;17.25;;
26181;SDS011;13927;51.534;11.866;2023-02-17T07:26:36;20.65;;;16.23;;
26181;SDS011;13927;51.534;11.866;2023-02-17T07:29:04;21.25;;;16.90;;
26181;SDS011;13927;51.534;11.866;2023-02-17T07:31:31;23.58;;;17.08;;
26181;SDS011;13927;51.534;11.866;2023-02-17T07:33:58;20.88;;;17.08;;
26181;SDS011;13927;51.534;11.866;2023-02-17T07:36:25;23.13;;;17.38;;
26181;SDS011;13927;51.534;11.866;2023-02-17T07:38:51;20.55;;;17.08;;
26181;SDS011;13927;51.534;11.866;2023-02-17T07:41:18;22.25;;;17.70;;
26181;SDS011;13927;51.534;11.866;2023-02-17T07:43:48;19.45;;;16.48;;
26181;SDS011;13927;51.534;11.866;2023-02-17T07:46:17;21.10;;;17.13;;
26181;SDS011;13927;51.534;11.866;2023-02-17T07:48:44;20.38;;;17.30;;
26181;SDS011;13927;51.534;11.866;2023-02-17T07:51:11;21.05;;;17.02;;
26181;SDS011;13927;51.534;11.866;2023-02-17T07:53:42;19.90;;;16.95;;
26181;SDS011;13927;51.534;11.866;2023-02-17T07:56:09;21.85;;;16.05;;
26181;SDS011;13927;51.534;11.866;2023-02-17T07:58:38;19.73;;;15.90;;
26181;SDS011;13927;51.534;11.866;2023-02-17T08:03:32;22.10;;;16.52;;
26181;SDS011;13927;51.534;11.866;2023-02-17T08:05:58;20.67;;;15.90;;
26181;SDS011;13927;51.534;11.866;2023-02-17T08:08:24;18.20;;;14.82;;
26181;SDS011;13927;51.534;11.866;2023-02-17T08:11:12;18.48;;;14.88;;
26181;SDS011;13927;51.534;11.866;2023-02-17T08:13:59;18.23;;;15.27;;
26181;SDS011;13927;51.534;11.866;2023-02-17T08:16:26;16.35;;;14.40;;
26181;SDS011;13927;51.534;11.866;2023-02-17T08:18:52;19.50;;;15.05;;
26181;SDS011;13927;51.534;11.866;2023-02-17T08:21:22;19.00;;;15.30;;
26181;SDS011;13927;51.534;11.866;2023-02-17T08:23:50;18.48;;;13.93;;
26181;SDS011;13927;51.534;11.866;2023-02-17T08:26:15;18.30;;;15.52;;
26181;SDS011;13927;51.534;11.866;2023-02-17T08:28:42;16.58;;;13.15;;
26181;SDS011;13927;51.534;11.866;2023-02-17T08:31:23;18.35;;;13.95;;
26181;SDS011;13927;51.534;11.866;2023-02-17T08:33:54;17.58;;;14.02;;
26181;SDS011;13927;51.534;11.866;2023-02-17T08:36:21;15.43;;;12.40;;
26181;SDS011;13927;51.534;11.866;2023-02-17T08:38:48;15.00;;;13.18;;
26181;SDS011;13927;51.534;11.866;2023-02-17T08:41:49;16.10;;;12.98;;
26181;SDS011;13927;51.534;11.866;2023-02-17T08:44:10;15.80;;;13.07;;
26181;SDS011;13927;51.534;11.866;2023-02-17T08:46:40;14.27;;;11.50;;
26181;SDS011;13927;51.534;11.866;2023-02-17T08:49:07;16.33;;;12.23;;
26181;SDS011;13927;51.534;11.866;2023-02-17T08:51:33;14.13;;;11.77;;
26181;SDS011;13927;51.534;11.866;2023-02-17T08:54:00;14.10;;;11.18;;
26181;SDS011;13927;51.534;11.866;2023-02-17T08:56:29;15.25;;;12.00;;
26181;SDS011;13927;51.534;11.866;2023-02-17T08:58:55;13.23;;;10.52;;
26181;SDS011;13927;51.534;11.866;2023-02-17T09:01:21;13.80;;;11.35;;
26181;SDS011;13927;51.534;11.866;2023-02-17T09:03:48;12.07;;;10.57;;
26181;SDS011;13927;51.534;11.866;2023-02-17T09:06:16;13.80;;;11.38;;
26181;SDS011;13927;51.534;11.866;2023-02-17T09:08:42;12.90;;;10.80;;
26181;SDS011;13927;51.534;11.866;2023-02-17T09:11:08;13.45;;;10.65;;
26181;SDS011;13927;51.534;11.866;2023-02-17T09:13:37;11.05;;;9.82;;
26181;SDS011;13927;51.534;11.866;2023-02-17T09:16:02;12.65;;;9.85;;
26181;SDS011;13927;51.534;11.866;2023-02-17T09:18:29;13.95;;;9.63;;
26181;SDS011;13927;51.534;11.866;2023-02-17T09:20:54;12.07;;;9.90;;
26181;SDS011;13927;51.534;11.866;2023-02-17T09:23:22;10.85;;;9.23;;
26181;SDS011;13927;51.534;11.866;2023-02-17T09:25:48;12.05;;;10.02;;
26181;SDS011;13927;51.534;11.866;2023-02-17T09:28:13;11.88;;;9.32;;
26181;SDS011;13927;51.534;11.866;2023-02-17T09:30:39;12.38;;;9.35;;
26181;SDS011;13927;51.534;11.866;2023-02-17T09:33:05;11.68;;;8.30;;
26181;SDS011;13927;51.534;11.866;2023-02-17T09:35:31;10.82;;;8.63;;
26181;SDS011;13927;51.534;11.866;2023-02-17T09:37:57;9.52;;;8.25;;
26181;SDS011;13927;51.534;11.866;2023-02-17T09:40:27;11.05;;;9.10;;
26181;SDS011;13927;51.534;11.866;2023-02-17T09:43:02;10.25;;;8.18;;
26181;SDS011;13927;51.534;11.866;2023-02-17T09:45:31;12.05;;;8.68;;
26181;SDS011;13927;51.534;11.866;2023-02-17T09:48:01;9.57;;;8.27;;
26181;SDS011;13927;51.534;11.866;2023-02-17T09:50:41;10.82;;;7.93;;
26181;SDS011;13927;51.534;11.866;2023-02-17T09:53:26;10.77;;;8.23;;
26181;SDS011;13927;51.534;11.866;2023-02-17T09:55:58;9.60;;;8.15;;
26181;SDS011;13927;51.534;11.866;2023-02-17T09:58:31;10.50;;;8.25;;
26181;SDS011;13927;51.534;11.866;2023-02-17T10:01:03;11.13;;;8.20;;
26181;SDS011;13927;51.534;11.866;2023-02-17T10:06:26;9.73;;;8.75;;
26181;SDS011;13927;51.534;11.866;2023-02-17T10:09:30;10.15;;;7.57;;
26181;SDS011;13927;51.534;11.866;2023-02-17T10:12:02;8.27;;;7.22;;
26181;SDS011;13927;51.534;11.866;2023-02-17T10:14:45;9.02;;;7.68;;
26181;SDS011;13927;51.534;11.866;2023-02-17T10:17:24;7.78;;;6.63;;
26181;SDS011;13927;51.534;11.866;2023-02-17T10:22:27;7.53;;;6.55;;
26181;SDS011;13927;51.534;11.866;2023-02-17T10:24:55;8.88;;;7.30;;
26181;SDS011;13927;51.534;11.866;2023-02-17T10:27:35;7.45;;;6.20;;
26181;SDS011;13927;51.534;11.866;2023-02-17T10:30:26;7.78;;;6.30;;
26181;SDS011;13927;51.534;11.866;2023-02-17T10:33:30;6.65;;;5.78;;
26181;SDS011;13927;51.534;11.866;2023-02-17T10:42:19;7.82;;;5.10;;
26181;SDS011;13927;51.534;11.866;2023-02-17T10:45:00;5.95;;;5.30;;
26181;SDS011;13927;51.534;11.866;2023-02-17T10:47:31;7.80;;;6.30;;
26181;SDS011;13927;51.534;11.866;2023-02-17T10:50:00;6.82;;;6.13;;
26181;SDS011;13927;51.534;11.866;2023-02-17T10:52:38;5.90;;;5.30;;
26181;SDS011;13927;51.534;11.866;2023-02-17T10:58:06;6.85;;;6.15;;
26181;SDS011;13927;51.534;11.866;2023-02-17T11:00:40;7.07;;;5.88;;
26181;SDS011;13927;51.534;11.866;2023-02-17T11:03:17;7.88;;;6.13;;
26181;SDS011;13927;51.534;11.866;2023-02-17T11:05:50;7.32;;;5.78;;
26181;SDS011;13927;51.534;11.866;2023-02-17T11:13:43;8.90;;;6.60;;
26181;SDS011;13927;51.534;11.866;2023-02-17T11:16:43;5.70;;;5.00;;
26181;SDS011;13927;51.534;11.866;2023-02-17T11:19:32;8.90;;;5.68;;
26181;SDS011;13927;51.534;11.866;2023-02-17T11:22:00;6.70;;;5.40;;
26181;SDS011;13927;51.534;11.866;2023-02-17T11:24:29;7.10;;;5.80;;
26181;SDS011;13927;51.534;11.866;2023-02-17T11:26:58;7.93;;;5.20;;
26181;SDS011;13927;51.534;11.866;2023-02-17T11:29:28;6.90;;;5.47;;
26181;SDS011;13927;51.534;11.866;2023-02-17T11:34:33;4.82;;;4.32;;
26181;SDS011;13927;51.534;11.866;2023-02-17T11:39:43;6.22;;;5.35;;
26181;SDS011;13927;51.534;11.866;2023-02-17T11:42:23;6.78;;;5.15;;
26181;SDS011;13927;51.534;11.866;2023-02-17T11:44:51;7.82;;;5.40;;
26181;SDS011;13927;51.534;11.866;2023-02-17T11:52:54;5.82;;;4.82;;
26181;SDS011;13927;51.534;11.866;2023-02-17T12:03:42;6.80;;;5.30;;
26181;SDS011;13927;51.534;11.866;2023-02-17T12:09:47;6.13;;;4.65;;
26181;SDS011;13927;51.534;11.866;2023-02-17T12:15:04;5.72;;;4.47;;
26181;SDS011;13927;51.534;11.866;2023-02-17T12:21:21;5.97;;;4.20;;
26181;SDS011;13927;51.534;11.866;2023-02-17T12:24:04;6.13;;;4.53;;
26181;SDS011;13927;51.534;11.866;2023-02-17T12:27:03;6.93;;;4.15;;
26181;SDS011;13927;51.534;11.866;2023-02-17T12:38:24;5.00;;;4.32;;
26181;SDS011;13927;51.534;11.866;2023-02-17T12:44:06;5.70;;;4.05;;
26181;SDS011;13927;51.534;11.866;2023-02-17T12:46:32;4.35;;;3.60;;
26181;SDS011;13927;51.534;11.866;2023-02-17T12:49:17;5.97;;;4.15;;
26181;SDS011;13927;51.534;11.866;2023-02-17T12:52:05;4.85;;;4.05;;
26181;SDS011;13927;51.534;11.866;2023-02-17T12:54:44;4.45;;;3.88;;
26181;SDS011;13927;51.534;11.866;2023-02-17T12:57:22;4.38;;;3.92;;
26181;SDS011;13927;51.534;11.866;2023-02-17T13:00:11;4.97;;;3.53;;
26181;SDS011;13927;51.534;11.866;2023-02-17T13:02:46;5.60;;;3.47;;
26181;SDS011;13927;51.534;11.866;2023-02-17T13:05:19;4.13;;;3.72;;
26181;SDS011;13927;51.534;11.866;2023-02-17T13:07:59;5.47;;;3.83;;
26181;SDS011;13927;51.534;11.866;2023-02-17T13:10:37;5.88;;;3.60;;
26181;SDS011;13927;51.534;11.866;2023-02-17T13:16:00;4.53;;;3.60;;
26181;SDS011;13927;51.534;11.866;2023-02-17T13:18:35;4.10;;;3.25;;
26181;SDS011;13927;51.534;11.866;2023-02-17T13:24:29;4.07;;;3.47;;
26181;SDS011;13927;51.534;11.866;2023-02-17T13:26:55;3.70;;;2.97;;
26181;SDS011;13927;51.534;11.866;2023-02-17T13:31:51;4.72;;;3.15;;
26181;SDS011;13927;51.534;11.866;2023-02-17T13:34:27;4.65;;;3.63;;
26181;SDS011;13927;51.534;11.866;2023-02-17T13:37:24;4.95;;;3.35;;
26181;SDS011;13927;51.534;11.866;2023-02-17T13:39:52;5.90;;;3.40;;
26181;SDS011;13927;51.534;11.866;2023-02-17T13:47:55;4.82;;;3.53;;
26181;SDS011;13927;51.534;11.866;2023-02-17T13:50:43;4.50;;;3.30;;
26181;SDS011;13927;51.534;11.866;2023-02-17T13:56:00;4.10;;;3.40;;
26181;SDS011;13927;51.534;11.866;2023-02-17T13:58:40;3.90;;;2.83;;
26181;SDS011;13927;51.534;11.866;2023-02-17T14:01:07;4.93;;;3.40;;
26181;SDS011;13927;51.534;11.866;2023-02-17T14:03:41;5.53;;;3.10;;
26181;SDS011;13927;51.534;11.866;2023-02-17T14:06:12;3.55;;;3.22;;
26181;SDS011;13927;51.534;11.866;2023-02-17T14:08:58;3.60;;;3.00;;
26181;SDS011;13927;51.534;11.866;2023-02-17T14:11:25;3.40;;;2.85;;
26181;SDS011;13927;51.534;11.866;2023-02-17T14:13:55;4.65;;;3.35;;
26181;SDS011;13927;51.534;11.866;2023-02-17T14:16:27;4.30;;;2.50;;
26181;SDS011;13927;51.534;11.866;2023-02-17T14:19:03;3.23;;;2.70;;
26181;SDS011;13927;51.534;11.866;2023-02-17T14:21:35;4.65;;;2.85;;
26181;SDS011;13927;51.534;11.866;2023-02-17T14:24:04;3.00;;;2.42;;
26181;SDS011;13927;51.534;11.866;2023-02-17T14:29:06;3.83;;;3.05;;
26181;SDS011;13927;51.534;11.866;2023-02-17T14:31:41;3.40;;;2.40;;
26181;SDS011;13927;51.534;11.866;2023-02-17T14:34:34;3.67;;;2.55;;
26181;SDS011;13927;51.534;11.866;2023-02-17T14:37:07;3.75;;;2.80;;
26181;SDS011;13927;51.534;11.866;2023-02-17T14:39:35;3.10;;;2.58;;
26181;SDS011;13927;51.534;11.866;2023-02-17T14:42:01;2.95;;;2.40;;
26181;SDS011;13927;51.534;11.866;2023-02-17T14:44:26;2.90;;;2.35;;
26181;SDS011;13927;51.534;11.866;2023-02-17T14:46:52;3.17;;;2.70;;
26181;SDS011;13927;51.534;11.866;2023-02-17T14:49:18;3.60;;;2.83;;
26181;SDS011;13927;51.534;11.866;2023-02-17T14:51:43;3.45;;;2.67;;
26181;SDS011;13927;51.534;11.866;2023-02-17T14:54:11;3.50;;;2.60;;
26181;SDS011;13927;51.534;11.866;2023-02-17T14:56:40;3.97;;;2.78;;
26181;SDS011;13927;51.534;11.866;2023-02-17T14:59:31;3.38;;;2.45;;
26181;SDS011;13927;51.534;11.866;2023-02-17T15:01:57;3.50;;;2.30;;
26181;SDS011;13927;51.534;11.866;2023-02-17T15:04:23;5.30;;;2.58;;
26181;SDS011;13927;51.534;11.866;2023-02-17T15:06:49;2.53;;;2.15;;
26181;SDS011;13927;51.534;11.866;2023-02-17T15:09:19;2.78;;;2.00;;
26181;SDS011;13927;51.534;11.866;2023-02-17T15:11:52;3.03;;;2.35;;
26181;SDS011;13927;51.534;11.866;2023-02-17T15:14:18;3.47;;;2.13;;
26181;SDS011;13927;51.534;11.866;2023-02-17T15:16:45;2.67;;;2.08;;
26181;SDS011;13927;51.534;11.866;2023-02-17T15:19:12;4.25;;;2.60;;
26181;SDS011;13927;51.534;11.866;2023-02-17T15:21:42;4.03;;;2.42;;
26181;SDS011;13927;51.534;11.866;2023-02-17T15:26:44;2.95;;;2.10;;
26181;SDS011;13927;51.534;11.866;2023-02-17T15:29:19;2.35;;;1.70;;
26181;SDS011;13927;51.534;11.866;2023-02-17T15:31:47;2.50;;;1.90;;
26181;SDS011;13927;51.534;11.866;2023-02-17T15:34:15;3.33;;;2.00;;
26181;SDS011;13927;51.534;11.866;2023-02-17T15:36:54;3.17;;;1.90;;
26181;SDS011;13927;51.534;11.866;2023-02-17T15:39:21;2.65;;;2.10;;
26181;SDS011;13927;51.534;11.866;2023-02-17T15:41:46;3.28;;;2.03;;
26181;SDS011;13927;51.534;11.866;2023-02-17T15:46:43;2.75;;;2.25;;
26181;SDS011;13927;51.534;11.866;2023-02-17T15:49:10;2.42;;;1.88;;
26181;SDS011;13927;51.534;11.866;2023-02-17T15:51:37;2.35;;;1.83;;
26181;SDS011;13927;51.534;11.866;2023-02-17T15:54:03;3.13;;;2.00;;
26181;SDS011;13927;51.534;11.866;2023-02-17T15:56:30;2.55;;;2.03;;
26181;SDS011;13927;51.534;11.866;2023-02-17T15:59:07;3.92;;;2.20;;
26181;SDS011;13927;51.534;11.866;2023-02-17T16:01:38;4.63;;;2.03;;
26181;SDS011;13927;51.534;11.866;2023-02-17T16:04:05;3.10;;;1.75;;
26181;SDS011;13927;51.534;11.866;2023-02-17T16:06:35;2.72;;;2.17;;
26181;SDS011;13927;51.534;11.866;2023-02-17T16:09:01;2.50;;;1.60;;
26181;SDS011;13927;51.534;11.866;2023-02-17T16:11:28;3.15;;;1.98;;
26181;SDS011;13927;51.534;11.866;2023-02-17T16:13:54;4.40;;;2.05;;
26181;SDS011;13927;51.534;11.866;2023-02-17T16:16:20;3.70;;;2.00;;
26181;SDS011;13927;51.534;11.866;2023-02-17T16:18:50;2.40;;;1.80;;
26181;SDS011;13927;51.534;11.866;2023-02-17T16:21:16;4.20;;;3.03;;
26181;SDS011;13927;51.534;11.866;2023-02-17T16:23:42;2.90;;;2.38;;
26181;SDS011;13927;51.534;11.866;2023-02-17T16:26:26;4.97;;;2.90;;
26181;SDS011;13927;51.534;11.866;2023-02-17T16:28:56;3.40;;;3.00;;
26181;SDS011;13927;51.534;11.866;2023-02-17T16:31:22;4.38;;;3.45;;